Time;durP1;ratioP1;P1;durP2;ratioP2;P2;SDS_P1;SDS_P2;PMS_P1;PMS_P2;Temp;Humidity;BMP_temperature;BMP_pressure;BME280_temperature;BME280_humidity;BME280_pressure;Samples;Min_cycle;Max_cycle;Signal;HPM_P1;HPM_P2
2021/08/15 00:01:16;;;;;;;7.20;6.47;;;;;;;28.93;43.42;100074.56;4976838;28;20039;-79
2021/08/15 00:03:43;;;;;;;8.27;5.82;;;;;;;29.00;44.22;100077.31;4977084;28;20039;-79
2021/08/15 00:06:10;;;;;;;12.75;5.05;;;;;;;29.07;44.03;100076.28;4976361;28;20047;-79
2021/08/15 00:08:37;;;;;;;7.95;5.65;;;;;;;28.99;43.74;100073.78;4977202;28;20486;-78
2021/08/15 00:11:04;;;;;;;10.40;5.22;;;;;;;28.94;43.28;100076.25;4976747;28;20097;-79
2021/08/15 00:13:31;;;;;;;6.45;5.20;;;;;;;28.93;43.35;100074.56;4977103;28;20113;-81
2021/08/15 00:15:58;;;;;;;6.93;5.57;;;;;;;28.89;43.88;100076.81;4976523;28;20153;-81
2021/08/15 00:18:25;;;;;;;7.85;4.55;;;;;;;28.63;44.69;100074.81;4976700;28;20489;-81
2021/08/15 00:20:51;;;;;;;5.32;4.28;;;;;;;28.54;44.06;100070.63;4978973;28;20047;-80
2021/08/15 00:23:18;;;;;;;14.82;6.22;;;;;;;28.54;44.06;100064.47;4979816;28;20053;-81
2021/08/15 00:25:45;;;;;;;7.65;5.82;;;;;;;28.59;43.94;100068.19;4977225;28;20493;-81
2021/08/15 00:28:11;;;;;;;6.93;5.13;;;;;;;28.74;43.59;100069.94;4976811;28;20449;-80
2021/08/15 00:30:39;;;;;;;8.05;5.18;;;;;;;28.84;43.87;100070.38;4976561;28;20078;-80
2021/08/15 00:33:06;;;;;;;8.18;4.95;;;;;;;28.73;43.94;100058.38;4976597;28;20035;-80
2021/08/15 00:35:32;;;;;;;10.18;6.18;;;;;;;28.60;43.43;100059.13;4976604;28;20509;-79
2021/08/15 00:37:59;;;;;;;8.38;6.80;;;;;;;28.70;43.19;100064.94;4975990;28;20039;-79
2021/08/15 00:40:27;;;;;;;11.73;6.13;;;;;;;28.71;43.33;100055.91;4976556;28;20070;-79
2021/08/15 00:42:53;;;;;;;6.18;5.57;;;;;;;28.75;43.05;100056.31;4976375;28;20097;-80
2021/08/15 00:45:20;;;;;;;10.10;5.53;;;;;;;28.90;43.22;100046.25;4976402;28;20481;-80
2021/08/15 00:47:47;;;;;;;9.52;5.18;;;;;;;28.71;43.45;100050.53;4976314;28;20502;-80
2021/08/15 00:50:15;;;;;;;8.43;5.43;;;;;;;28.67;43.14;100049.28;4975760;28;20046;-79
2021/08/15 00:52:41;;;;;;;10.90;6.03;;;;;;;28.68;43.47;100047.41;4976703;28;20712;-81
2021/08/15 00:55:11;;;;;;;6.40;5.20;;;;;;;28.80;43.19;100053.03;4975783;28;20461;-80
2021/08/15 00:57:46;;;;;;;6.63;4.68;;;;;;;28.84;43.05;100048.94;4976569;28;20035;-82
2021/08/15 01:00:13;;;;;;;8.77;5.47;;;;;;;28.81;42.48;100060.03;4976043;28;20055;-79
2021/08/15 01:02:44;;;;;;;9.18;5.85;;;;;;;28.67;42.78;100048.44;4976563;28;20049;-79
2021/08/15 01:05:11;;;;;;;5.80;5.20;;;;;;;28.73;43.20;100052.19;4975851;28;20047;-79
2021/08/15 01:07:39;;;;;;;9.65;5.07;;;;;;;28.74;42.67;100053.84;4975982;28;20051;-78
2021/08/15 01:10:16;;;;;;;7.88;5.15;;;;;;;28.76;42.98;100057.13;4975677;28;20474;-78
2021/08/15 01:12:44;;;;;;;9.38;5.75;;;;;;;28.77;42.95;100054.28;4975956;28;20046;-80
2021/08/15 01:15:12;;;;;;;4.88;4.38;;;;;;;28.64;43.42;100056.88;4975780;28;20062;-81
2021/08/15 01:17:40;;;;;;;5.40;4.43;;;;;;;28.68;43.09;100055.47;4974834;28;20051;-81
2021/08/15 01:20:08;;;;;;;9.50;5.57;;;;;;;28.70;42.84;100056.91;4976133;28;20094;-82
2021/08/15 01:22:41;;;;;;;7.25;4.95;;;;;;;28.77;42.61;100056.13;4975776;28;20097;-81
2021/08/15 01:25:09;;;;;;;8.35;5.13;;;;;;;28.85;44.05;100061.31;4975796;28;20098;-82
2021/08/15 01:27:38;;;;;;;10.32;6.32;;;;;;;28.51;44.77;100057.66;4975325;28;20383;-82
2021/08/15 01:30:08;;;;;;;7.20;5.75;;;;;;;28.06;44.81;100051.75;4976330;28;20042;-82
2021/08/15 01:32:39;;;;;;;8.52;5.13;;;;;;;27.74;46.56;100055.81;4981139;28;20058;-79
2021/08/15 01:35:23;;;;;;;9.93;5.63;;;;;;;27.60;47.16;100060.22;4977611;28;20057;-80
2021/08/15 01:38:03;;;;;;;8.10;6.07;;;;;;;27.41;47.88;100056.31;4975252;28;20054;-80
2021/08/15 01:40:30;;;;;;;11.05;6.13;;;;;;;27.09;49.70;100049.56;4975060;28;20042;-80
2021/08/15 01:42:56;;;;;;;12.43;6.70;;;;;;;27.03;50.50;100058.31;4975388;28;20384;-81
2021/08/15 01:45:23;;;;;;;8.45;6.60;;;;;;;27.01;50.10;100049.69;4975256;28;20065;-82
2021/08/15 01:47:50;;;;;;;9.93;6.95;;;;;;;26.98;50.58;100047.38;4974950;28;20422;-81
2021/08/15 01:50:17;;;;;;;9.40;6.75;;;;;;;26.71;51.16;100046.22;4973730;28;20047;-81
2021/08/15 01:52:44;;;;;;;9.50;6.95;;;;;;;26.73;50.99;100046.00;4975854;28;20039;-81
2021/08/15 01:55:11;;;;;;;7.25;6.35;;;;;;;26.79;50.85;100042.59;4975526;28;20066;-83
2021/08/15 01:57:38;;;;;;;16.55;7.18;;;;;;;26.67;51.29;100046.75;4982481;28;20047;-84
2021/08/15 02:00:06;;;;;;;10.88;7.10;;;;;;;26.71;51.24;100042.72;4976600;28;20054;-85
2021/08/15 02:02:42;;;;;;;13.45;7.63;;;;;;;26.67;51.54;100038.75;4977494;28;20482;-84
2021/08/15 02:05:15;;;;;;;8.15;7.35;;;;;;;26.63;51.46;100044.47;4974598;28;20039;-84
2021/08/15 02:07:42;;;;;;;14.20;7.20;;;;;;;26.66;51.37;100043.25;4955590;29;20047;-85
2021/08/15 02:10:09;;;;;;;12.90;6.60;;;;;;;26.63;51.16;100036.47;4965470;28;20053;-83
2021/08/15 02:12:36;;;;;;;10.35;6.28;;;;;;;26.67;50.85;100044.09;4974857;28;20164;-82
2021/08/15 02:15:03;;;;;;;11.32;6.30;;;;;;;26.71;50.27;100042.72;4974465;28;20042;-82
2021/08/15 02:17:30;;;;;;;9.27;6.15;;;;;;;26.78;49.72;100048.97;4974894;28;20046;-81
2021/08/15 02:19:57;;;;;;;12.50;6.38;;;;;;;26.67;50.65;100041.41;4974099;28;20050;-81
2021/08/15 02:22:23;;;;;;;11.40;5.47;;;;;;;26.54;50.71;100050.94;4974286;28;20034;-80
2021/08/15 02:24:50;;;;;;;11.35;6.40;;;;;;;26.55;50.83;100041.88;4974490;28;20446;-80
2021/08/15 02:27:17;;;;;;;8.85;5.57;;;;;;;26.72;50.20;100039.84;4974370;28;20102;-80
2021/08/15 02:29:44;;;;;;;9.68;5.82;;;;;;;26.51;50.13;100045.13;4974099;28;20046;-78
2021/08/15 02:32:11;;;;;;;7.15;6.15;;;;;;;26.52;50.42;100042.25;4974155;28;20663;-82
2021/08/15 02:34:37;;;;;;;13.63;7.25;;;;;;;26.54;50.51;100044.75;4973353;28;20047;-83
2021/08/15 02:37:04;;;;;;;7.25;6.57;;;;;;;26.62;50.73;100050.00;4973915;28;20034;-83
2021/08/15 02:39:31;;;;;;;9.52;7.07;;;;;;;26.47;51.56;100041.97;4975807;28;20076;-83
2021/08/15 02:41:58;;;;;;;7.70;6.05;;;;;;;26.50;51.79;100043.47;4974519;28;20034;-85
2021/08/15 02:44:24;;;;;;;9.23;6.93;;;;;;;26.48;51.82;100042.81;4974504;28;20050;-79
2021/08/15 02:46:51;;;;;;;11.20;7.72;;;;;;;26.39;52.41;100039.38;4974186;28;20097;-80
2021/08/15 02:49:18;;;;;;;8.60;7.00;;;;;;;26.43;52.36;100031.84;4973553;28;20105;-80
2021/08/15 02:51:44;;;;;;;12.63;7.22;;;;;;;26.39;52.54;100028.69;4974284;28;20090;-81
2021/08/15 02:54:11;;;;;;;10.40;7.15;;;;;;;26.29;52.93;100026.28;4973657;28;20054;-82
2021/08/15 02:56:38;;;;;;;12.70;6.30;;;;;;;26.24;53.13;100026.00;4974509;28;20109;-82
2021/08/15 02:59:05;;;;;;;8.60;7.70;;;;;;;26.07;53.71;100029.84;4973704;28;20043;-79
2021/08/15 03:01:31;;;;;;;8.88;7.03;;;;;;;25.99;53.83;100020.06;4974088;28;20121;-80
2021/08/15 03:03:58;;;;;;;12.18;7.93;;;;;;;26.09;53.67;100012.63;4973512;28;20042;-80
2021/08/15 03:06:25;;;;;;;10.88;7.18;;;;;;;26.19;53.25;100009.69;4973928;28;20050;-81
2021/08/15 03:08:53;;;;;;;11.57;7.45;;;;;;;26.04;53.69;100011.50;4974204;28;20042;-80
2021/08/15 03:11:21;;;;;;;12.05;6.88;;;;;;;26.10;53.63;100021.50;4973476;28;20045;-80
2021/08/15 03:13:49;;;;;;;11.30;7.35;;;;;;;26.00;53.60;100012.91;4974177;28;20387;-80
2021/08/15 03:16:15;;;;;;;10.00;6.68;;;;;;;25.93;53.59;100009.28;4973484;28;20557;-82
2021/08/15 03:18:43;;;;;;;8.57;6.80;;;;;;;25.89;52.86;100008.84;4973757;28;20038;-80
2021/08/15 03:21:10;;;;;;;8.70;5.78;;;;;;;25.73;52.98;100008.97;4973257;28;20038;-81
2021/08/15 03:23:36;;;;;;;8.40;5.32;;;;;;;25.73;53.00;100012.47;4973924;28;20042;-81
2021/08/15 03:26:03;;;;;;;11.07;6.88;;;;;;;25.77;52.68;100005.75;4973348;28;20397;-82
2021/08/15 03:28:30;;;;;;;9.10;6.55;;;;;;;25.76;52.99;100003.28;4972487;28;20042;-81
2021/08/15 03:30:56;;;;;;;8.82;6.07;;;;;;;25.93;52.48;100012.78;4976267;28;20042;-81
2021/08/15 03:33:23;;;;;;;8.40;6.43;;;;;;;25.96;52.33;100004.44;4977638;28;20034;-81
2021/08/15 03:35:50;;;;;;;7.95;5.93;;;;;;;26.10;52.67;100006.28;4977653;28;20046;-81
2021/08/15 03:38:17;;;;;;;10.60;7.38;;;;;;;26.13;52.70;100016.59;4977384;28;20051;-80
2021/08/15 03:40:43;;;;;;;8.93;6.35;;;;;;;26.22;53.02;100013.84;4977337;28;20490;-81
2021/08/15 03:43:10;;;;;;;13.85;7.90;;;;;;;26.35;52.81;100008.69;4977218;28;20047;-81
2021/08/15 03:45:39;;;;;;;11.00;6.95;;;;;;;26.13;53.47;100005.09;4977519;28;20045;-81
2021/08/15 03:48:06;;;;;;;12.95;6.78;;;;;;;26.06;53.83;100010.34;4976872;28;20055;-80
2021/08/15 03:50:33;;;;;;;15.52;7.45;;;;;;;26.03;54.01;100009.84;4977106;28;20097;-81
2021/08/15 03:52:59;;;;;;;9.05;7.57;;;;;;;26.14;53.48;100006.72;4977064;28;20042;-81
2021/08/15 03:55:26;;;;;;;10.50;7.18;;;;;;;26.09;53.86;100011.78;4977240;28;20038;-79
2021/08/15 03:57:53;;;;;;;11.07;7.18;;;;;;;26.13;53.90;100015.78;4977221;28;20050;-79
2021/08/15 04:00:20;;;;;;;9.15;6.63;;;;;;;25.90;54.34;99999.81;4977347;28;20406;-79
2021/08/15 04:02:47;;;;;;;7.95;6.97;;;;;;;26.03;53.83;100008.03;4976987;28;20039;-79
2021/08/15 04:05:14;;;;;;;8.65;7.45;;;;;;;25.93;53.77;100007.44;4976616;28;20047;-80
2021/08/15 04:07:40;;;;;;;9.70;7.53;;;;;;;25.93;54.32;100006.63;4977237;28;20105;-80
2021/08/15 04:10:09;;;;;;;10.32;7.55;;;;;;;25.91;53.03;100014.81;4976577;28;20076;-80
2021/08/15 04:12:36;;;;;;;7.13;6.43;;;;;;;26.11;51.88;100013.28;4976842;28;20544;-80
2021/08/15 04:15:03;;;;;;;8.50;7.10;;;;;;;26.06;53.10;100013.00;4976550;28;20042;-80
2021/08/15 04:17:30;;;;;;;14.27;7.22;;;;;;;25.92;53.73;100010.31;4976930;28;20409;-79
2021/08/15 04:19:57;;;;;;;8.00;5.90;;;;;;;25.78;53.74;100006.59;4976378;28;20054;-79
2021/08/15 04:22:24;;;;;;;7.80;6.32;;;;;;;25.59;54.24;100007.91;4976981;28;20046;-78
2021/08/15 04:24:51;;;;;;;13.45;6.47;;;;;;;25.64;53.93;100016.19;4976680;28;20043;-78
2021/08/15 04:27:17;;;;;;;8.68;5.97;;;;;;;25.74;54.15;100021.28;4975208;28;20047;-77
2021/08/15 04:29:45;;;;;;;11.52;7.00;;;;;;;25.89;53.80;100013.31;4976778;28;20489;-78
2021/08/15 04:32:12;;;;;;;10.68;6.47;;;;;;;25.96;53.37;100016.94;4976907;28;20043;-78
2021/08/15 04:34:39;;;;;;;7.22;6.55;;;;;;;25.74;53.79;100005.28;4988278;28;20093;-79
2021/08/15 04:37:06;;;;;;;8.45;6.47;;;;;;;25.69;54.15;100013.00;4984819;28;20585;-82
2021/08/15 04:39:33;;;;;;;9.55;6.60;;;;;;;25.41;55.18;100018.03;4965432;28;20520;-82
2021/08/15 04:41:59;;;;;;;12.30;6.75;;;;;;;25.31;55.70;100019.13;4970038;28;20045;-81
2021/08/15 04:44:26;;;;;;;11.15;7.13;;;;;;;25.77;54.22;100021.78;4976405;28;20046;-84
2021/08/15 04:46:53;;;;;;;7.30;6.60;;;;;;;25.99;53.32;100020.06;4976180;28;20445;-83
2021/08/15 04:49:20;;;;;;;8.68;6.82;;;;;;;25.97;53.55;100024.78;4976153;28;20070;-82
2021/08/15 04:51:46;;;;;;;9.10;6.28;;;;;;;26.06;53.34;100025.53;4975737;28;20050;-80
2021/08/15 04:54:13;;;;;;;10.45;6.72;;;;;;;26.16;52.92;100023.44;4975379;28;20418;-80
2021/08/15 04:56:40;;;;;;;9.85;7.35;;;;;;;26.06;53.16;100023.69;4975877;28;20046;-82
2021/08/15 04:59:07;;;;;;;11.63;6.93;;;;;;;26.04;53.69;100030.22;4975448;28;20051;-81
2021/08/15 05:01:33;;;;;;;18.55;6.43;;;;;;;26.26;53.10;100025.81;4975378;28;20042;-80
2021/08/15 05:04:04;;;;;;;13.05;6.75;;;;;;;26.13;53.56;100027.28;4975533;28;20114;-83
2021/08/15 05:06:33;;;;;;;17.63;10.18;;;;;;;26.05;53.28;100035.38;4975567;28;20073;-80
2021/08/15 05:08:59;;;;;;;16.83;7.93;;;;;;;26.38;52.53;100033.19;4975477;28;20047;-80
2021/08/15 05:11:26;;;;;;;13.13;7.45;;;;;;;26.38;52.53;100040.38;4975265;28;20043;-81
2021/08/15 05:13:53;;;;;;;11.20;7.05;;;;;;;26.71;51.79;100038.19;4975250;28;20062;-80
2021/08/15 05:16:20;;;;;;;11.68;7.10;;;;;;;26.95;51.28;100036.19;4975867;28;20043;-80
2021/08/15 05:18:47;;;;;;;9.32;6.78;;;;;;;27.10;50.49;100042.38;4976571;28;20042;-78
2021/08/15 05:21:14;;;;;;;8.93;6.55;;;;;;;27.06;51.51;100043.72;4979178;28;20034;-78
2021/08/15 05:23:41;;;;;;;12.35;8.48;;;;;;;26.93;51.80;100043.59;4979763;28;20038;-79
2021/08/15 05:26:08;;;;;;;10.60;6.82;;;;;;;26.83;51.83;100043.88;4971875;28;20075;-77
2021/08/15 05:28:35;;;;;;;8.25;7.07;;;;;;;26.81;52.31;100036.06;4967590;28;20043;-78
2021/08/15 05:31:02;;;;;;;17.05;7.75;;;;;;;26.77;52.45;100032.09;4974684;28;20147;-79
2021/08/15 05:33:29;;;;;;;19.40;8.15;;;;;;;27.00;52.36;100031.94;4971498;28;20113;-82
2021/08/15 05:35:56;;;;;;;11.05;6.65;;;;;;;27.19;52.25;100038.56;4966220;28;20038;-79
2021/08/15 05:38:23;;;;;;;7.88;7.07;;;;;;;27.54;51.30;100036.03;4952058;28;20043;-80
2021/08/15 05:40:50;;;;;;;8.27;6.95;;;;;;;27.24;52.13;100032.66;4967958;28;20095;-86
2021/08/15 05:43:18;;;;;;;13.38;7.57;;;;;;;27.51;50.97;100031.91;4963821;28;20130;-83
2021/08/15 05:45:45;;;;;;;7.28;6.15;;;;;;;27.59;51.22;100034.47;4964705;28;20043;-85
2021/08/15 05:48:12;;;;;;;9.55;6.72;;;;;;;27.61;50.91;100032.41;4964819;28;20043;-81
2021/08/15 05:50:38;;;;;;;8.10;6.53;;;;;;;27.71;50.34;100039.31;4968833;28;20058;-82
2021/08/15 05:53:05;;;;;;;10.48;7.65;;;;;;;27.87;49.99;100041.72;4966656;28;20039;-82
2021/08/15 05:55:32;;;;;;;11.32;7.20;;;;;;;28.04;49.66;100035.03;4967685;28;20055;-82
2021/08/15 05:57:59;;;;;;;10.98;7.88;;;;;;;28.35;49.13;100028.47;4967520;28;20073;-82
2021/08/15 06:00:26;;;;;;;11.63;7.13;;;;;;;28.36;49.30;100030.13;4972351;28;20038;-82
2021/08/15 06:02:52;;;;;;;10.95;7.38;;;;;;;28.54;49.00;100030.41;4968185;28;20082;-81
2021/08/15 06:05:20;;;;;;;10.98;6.90;;;;;;;28.64;48.58;100036.25;4965859;28;20043;-80
2021/08/15 06:07:47;;;;;;;12.80;8.38;;;;;;;28.85;47.50;100029.13;4968555;28;20070;-79
2021/08/15 06:10:14;;;;;;;11.00;7.57;;;;;;;28.95;47.38;100033.09;4968498;28;20039;-76
2021/08/15 06:12:40;;;;;;;9.80;6.72;;;;;;;29.19;46.41;100036.25;4966387;28;20047;-76
2021/08/15 06:15:13;;;;;;;10.73;7.03;;;;;;;29.12;45.69;100036.25;4971656;28;20043;-77
2021/08/15 06:17:43;;;;;;;12.65;7.53;;;;;;;29.25;45.25;100040.03;4970082;28;20073;-79
2021/08/15 06:20:12;;;;;;;9.10;7.05;;;;;;;29.17;45.78;100036.47;4968126;28;20047;-76
2021/08/15 06:22:46;;;;;;;10.57;6.75;;;;;;;29.18;45.48;100038.13;4969892;28;20121;-77
2021/08/15 06:25:15;;;;;;;7.82;6.53;;;;;;;29.18;45.31;100038.13;4966685;28;20043;-80
2021/08/15 06:27:44;;;;;;;10.88;6.63;;;;;;;29.30;44.72;100042.91;4969691;28;20050;-78
2021/08/15 06:30:13;;;;;;;12.48;6.97;;;;;;;29.22;45.34;100036.69;4964544;28;20047;-78
2021/08/15 06:32:52;;;;;;;9.93;7.32;;;;;;;29.17;44.12;100033.78;4971852;28;20167;-78
2021/08/15 06:35:24;;;;;;;13.30;6.63;;;;;;;29.13;44.95;100037.91;4962396;28;20282;-76
2021/08/15 06:37:53;;;;;;;9.48;5.75;;;;;;;29.36;43.99;100045.63;4970295;28;20105;-83
2021/08/15 06:40:21;;;;;;;9.93;6.32;;;;;;;29.62;43.67;100046.72;4966636;28;20732;-80
2021/08/15 06:42:48;;;;;;;7.00;6.28;;;;;;;29.46;43.92;100047.91;4965204;28;20039;-79
2021/08/15 06:45:15;;;;;;;8.85;6.03;;;;;;;29.54;44.58;100052.28;4968540;28;20043;-78
2021/08/15 06:47:42;;;;;;;11.60;6.80;;;;;;;29.30;45.56;100049.13;4959760;28;20050;-79
2021/08/15 06:50:09;;;;;;;13.60;7.45;;;;;;;29.33;46.17;100043.31;4961669;28;21896;-80
2021/08/15 06:52:37;;;;;;;10.63;6.07;;;;;;;29.32;45.55;100040.84;4970714;28;20098;-80
2021/08/15 06:55:05;;;;;;;11.18;6.68;;;;;;;29.32;45.32;100038.16;4967657;28;20038;-79
2021/08/15 06:57:32;;;;;;;14.55;6.82;;;;;;;29.33;44.96;100037.13;4965305;28;20097;-78
2021/08/15 06:59:59;;;;;;;8.50;7.20;;;;;;;29.30;45.79;100038.38;4962859;28;20050;-80
2021/08/15 07:02:26;;;;;;;10.00;7.13;;;;;;;29.21;46.87;100035.03;4964555;28;20085;-76
2021/08/15 07:04:53;;;;;;;8.38;6.82;;;;;;;29.07;45.93;100032.53;4961022;28;20047;-77
2021/08/15 07:07:19;;;;;;;12.48;6.40;;;;;;;29.29;44.73;100035.88;4958343;28;20102;-78
2021/08/15 07:09:47;;;;;;;12.82;7.47;;;;;;;29.38;44.05;100029.28;4958943;28;20034;-79
2021/08/15 07:12:14;;;;;;;14.52;7.00;;;;;;;29.50;44.02;100028.47;4966352;28;20050;-81
2021/08/15 07:14:42;;;;;;;9.43;5.70;;;;;;;29.28;43.12;100029.69;4968274;28;20053;-79
2021/08/15 07:17:09;;;;;;;10.23;6.43;;;;;;;29.40;43.49;100028.06;4969045;28;20486;-78
2021/08/15 07:19:35;;;;;;;9.85;6.07;;;;;;;29.28;43.58;100026.16;4962107;28;20043;-79
2021/08/15 07:22:02;;;;;;;7.70;6.78;;;;;;;29.08;43.16;100029.63;4964818;28;20051;-78
2021/08/15 07:24:30;;;;;;;7.53;5.28;;;;;;;29.23;43.22;100032.97;4960890;28;20055;-79
2021/08/15 07:26:58;;;;;;;9.82;6.38;;;;;;;29.21;42.80;100028.84;4955634;28;20047;-78
2021/08/15 07:29:25;;;;;;;12.18;6.13;;;;;;;29.37;42.51;100027.66;4956306;28;20122;-78
2021/08/15 07:31:53;;;;;;;9.57;5.95;;;;;;;29.58;42.21;100026.66;4968214;28;20039;-77
2021/08/15 07:34:20;;;;;;;8.48;5.78;;;;;;;29.64;41.74;100021.28;4960296;28;20509;-81
2021/08/15 07:36:47;;;;;;;7.38;5.60;;;;;;;29.56;41.62;100016.09;4968465;28;20093;-81
2021/08/15 07:39:14;;;;;;;19.50;6.63;;;;;;;29.54;42.42;100023.56;4965021;28;20047;-79
2021/08/15 07:41:41;;;;;;;7.07;5.80;;;;;;;29.56;42.27;100023.34;4968531;28;20086;-80
2021/08/15 07:44:08;;;;;;;8.70;5.75;;;;;;;29.29;42.83;100020.59;4968504;28;20043;-77
2021/08/15 07:46:35;;;;;;;13.68;6.57;;;;;;;29.26;44.23;100014.81;4968736;28;20150;-83
2021/08/15 07:49:03;;;;;;;10.00;7.10;;;;;;;29.18;44.83;100021.19;4967712;28;20126;-78
2021/08/15 07:51:31;;;;;;;8.07;7.10;;;;;;;29.27;45.42;100027.22;4964999;28;20074;-85
2021/08/15 07:53:58;;;;;;;13.77;7.15;;;;;;;29.29;45.39;100027.81;4967355;28;20046;-84
2021/08/15 07:56:25;;;;;;;21.08;7.72;;;;;;;29.28;44.81;100027.00;4969908;28;20118;-85
2021/08/15 07:58:52;;;;;;;16.52;7.47;;;;;;;29.35;45.42;100019.81;4968413;28;20066;-84
2021/08/15 08:01:19;;;;;;;15.63;7.90;;;;;;;29.20;45.61;100033.41;4962646;28;20498;-81
2021/08/15 08:03:46;;;;;;;18.70;7.85;;;;;;;29.37;44.75;100022.28;4960476;28;20126;-81
2021/08/15 08:06:13;;;;;;;14.43;7.38;;;;;;;29.35;45.57;100022.50;4959913;28;20122;-82
2021/08/15 08:08:39;;;;;;;12.48;7.75;;;;;;;29.34;45.98;100025.34;4960691;28;20039;-81
2021/08/15 08:11:06;;;;;;;11.75;7.93;;;;;;;29.40;45.69;100024.53;4958499;28;20035;-80
2021/08/15 08:13:33;;;;;;;20.50;7.88;;;;;;;29.71;45.17;100019.41;4968229;28;20042;-79
2021/08/15 08:16:00;;;;;;;10.75;7.03;;;;;;;29.75;44.64;100023.34;4958678;28;20059;-83
2021/08/15 08:18:27;;;;;;;13.13;7.35;;;;;;;29.47;45.66;100009.28;4961154;28;20043;-81
2021/08/15 08:20:54;;;;;;;16.10;7.55;;;;;;;29.59;44.92;100015.72;4961079;28;20094;-83
2021/08/15 08:23:21;;;;;;;10.50;7.03;;;;;;;29.60;45.16;100016.53;4964245;28;20494;-81
2021/08/15 08:25:48;;;;;;;11.88;6.82;;;;;;;29.62;44.73;100009.94;4961303;28;20435;-82
2021/08/15 08:28:15;;;;;;;20.27;8.13;;;;;;;29.63;44.86;100008.91;4960507;28;20047;-82
2021/08/15 08:30:42;;;;;;;12.15;7.38;;;;;;;29.65;44.87;100008.69;4962621;28;20043;-81
2021/08/15 08:33:09;;;;;;;13.65;8.45;;;;;;;29.79;45.90;100012.22;4960721;28;20046;-82
2021/08/15 08:35:36;;;;;;;16.58;9.55;;;;;;;29.81;46.09;100008.25;4958185;28;20034;-85
2021/08/15 08:38:03;;;;;;;11.30;8.05;;;;;;;29.77;46.58;100014.25;4961719;28;20074;-87
2021/08/15 08:40:32;;;;;;;15.10;7.55;;;;;;;29.88;46.15;100010.94;4972463;28;20135;-83
2021/08/15 08:43:00;;;;;;;13.27;7.22;;;;;;;29.81;45.47;100008.25;4965775;28;20054;-84
2021/08/15 08:45:27;;;;;;;10.30;7.28;;;;;;;29.98;45.60;100004.09;4959425;28;20047;-84
2021/08/15 08:47:54;;;;;;;8.68;7.47;;;;;;;29.74;46.15;100005.59;4973219;28;20101;-89
2021/08/15 08:50:22;;;;;;;14.15;8.52;;;;;;;29.97;45.29;100001.63;4973926;28;20043;-83
2021/08/15 08:52:49;;;;;;;16.50;8.70;;;;;;;29.99;45.01;99996.91;4971868;28;20154;-85
2021/08/15 08:55:17;;;;;;;11.85;8.60;;;;;;;30.10;44.95;100003.50;4971888;28;20049;-82
2021/08/15 08:57:46;;;;;;;9.88;7.45;;;;;;;29.99;45.23;99996.91;4967016;28;20047;-85
2021/08/15 09:00:15;;;;;;;15.93;7.95;;;;;;;30.00;44.61;99993.16;4975303;28;20047;-86
2021/08/15 09:02:42;;;;;;;11.80;8.85;;;;;;;30.15;44.34;99993.78;4966925;28;20048;-87
2021/08/15 09:05:09;;;;;;;13.23;8.10;;;;;;;30.20;44.65;99993.13;4975771;28;20066;-87
2021/08/15 09:07:40;;;;;;;11.77;7.65;;;;;;;30.32;44.49;99988.78;4975676;28;20508;-91
2021/08/15 09:10:12;;;;;;;11.00;9.23;;;;;;;30.04;44.58;99986.31;4970909;28;20046;-89
2021/08/15 09:12:50;;;;;;;12.57;7.32;;;;;;;30.08;44.67;99982.19;4972781;28;20042;-86
2021/08/15 09:15:21;;;;;;;13.90;7.53;;;;;;;30.26;44.03;99987.75;4972696;28;20039;-87
2021/08/15 09:17:49;;;;;;;10.63;7.75;;;;;;;30.34;44.05;99991.25;4960786;28;20583;-87
2021/08/15 09:20:36;;;;;;;14.32;7.60;;;;;;;30.38;43.69;99976.34;4964995;28;20118;-86
2021/08/15 09:23:34;;;;;;;10.15;7.90;;;;;;;30.52;43.35;99977.94;4984051;28;20463;-87
2021/08/15 09:26:14;;;;;;;9.88;7.55;;;;;;;30.42;42.49;99980.28;4971670;28;20047;-87
2021/08/15 09:28:42;;;;;;;9.18;6.90;;;;;;;30.39;42.97;99983.38;4971082;28;20122;-86
2021/08/15 09:31:25;;;;;;;9.95;6.80;;;;;;;30.49;42.42;99976.50;4971017;28;20438;-87
2021/08/15 09:33:54;;;;;;;14.70;6.47;;;;;;;30.71;41.96;99976.25;4969671;28;20039;-87
2021/08/15 09:36:40;;;;;;;10.45;6.95;;;;;;;30.63;41.85;99961.16;4965172;28;20073;-84
2021/08/15 09:39:08;;;;;;;15.27;7.63;;;;;;;30.78;41.64;99967.06;4968314;28;20554;-82
2021/08/15 09:41:37;;;;;;;9.15;6.78;;;;;;;30.62;41.95;99951.41;4999926;28;20114;-85
2021/08/15 09:44:25;;;;;;;11.18;7.07;;;;;;;30.80;41.73;99963.38;4987157;28;20066;-84
2021/08/15 09:47:12;;;;;;;14.32;7.40;;;;;;;30.90;42.11;99959.16;4992163;28;20035;-82
2021/08/15 09:49:46;;;;;;;13.32;7.57;;;;;;;30.85;41.59;99950.91;4965001;28;20118;-82
2021/08/15 09:52:13;;;;;;;11.70;7.15;;;;;;;31.03;41.52;99951.00;4968473;28;20523;-84
2021/08/15 09:54:41;;;;;;;9.45;7.40;;;;;;;31.13;41.39;99941.63;4969202;28;20045;-86
2021/08/15 09:57:26;;;;;;;12.52;6.47;;;;;;;30.98;40.89;99939.22;4973945;28;20039;-82
2021/08/15 09:59:53;;;;;;;10.75;6.45;;;;;;;30.86;41.37;99941.78;4974914;28;20043;-82
2021/08/15 10:02:20;;;;;;;13.18;7.72;;;;;;;31.07;40.92;99929.03;4964004;28;20830;-83
2021/08/15 10:04:47;;;;;;;11.73;6.35;;;;;;;31.17;40.64;99927.50;4967992;28;20038;-84
2021/08/15 10:07:14;;;;;;;16.23;6.47;;;;;;;31.19;39.01;99933.50;4968249;28;20489;-85
2021/08/15 10:09:41;;;;;;;9.82;6.13;;;;;;;31.15;39.45;99932.28;4970068;28;20046;-86
2021/08/15 10:12:08;;;;;;;10.23;6.50;;;;;;;31.23;39.81;99921.25;4966399;28;20082;-86
2021/08/15 10:14:35;;;;;;;10.27;6.95;;;;;;;31.22;40.24;99918.78;4967716;28;20042;-85
2021/08/15 10:17:06;;;;;;;7.45;6.53;;;;;;;31.29;40.49;99922.25;4965164;28;20133;-80
2021/08/15 10:19:44;;;;;;;10.60;7.15;;;;;;;31.35;40.10;99925.94;4959234;28;20043;-83
2021/08/15 10:22:23;;;;;;;14.13;6.65;;;;;;;31.29;40.08;99923.09;4961664;28;20394;-85
2021/08/15 10:24:55;;;;;;;13.93;7.22;;;;;;;31.43;40.38;99914.91;4959924;28;20043;-80
2021/08/15 10:27:40;;;;;;;10.32;6.35;;;;;;;31.69;40.14;99925.41;4969073;28;20106;-82
2021/08/15 10:30:13;;;;;;;11.48;7.03;;;;;;;31.30;40.67;99919.34;4968052;28;20050;-84
2021/08/15 10:32:55;;;;;;;9.98;7.22;;;;;;;31.69;40.90;99917.31;4965004;28;20152;-85
2021/08/15 10:35:24;;;;;;;11.52;7.90;;;;;;;31.67;40.76;99915.91;4969343;28;20043;-84
2021/08/15 10:37:53;;;;;;;10.07;6.15;;;;;;;31.73;40.15;99910.44;4970964;28;20038;-83
2021/08/15 10:40:42;;;;;;;10.20;6.82;;;;;;;31.78;40.42;99907.09;4970069;28;20090;-84
2021/08/15 10:43:32;;;;;;;11.93;7.80;;;;;;;32.03;41.89;99907.06;4960547;28;20391;-81
2021/08/15 10:46:17;;;;;;;8.88;6.88;;;;;;;31.77;40.49;99902.75;4959607;28;20097;-82
2021/08/15 10:48:53;;;;;;;8.98;6.30;;;;;;;31.74;41.98;99903.19;4968905;28;20047;-84
2021/08/15 10:51:39;;;;;;;8.05;6.85;;;;;;;31.42;42.13;99908.66;4966797;28;20047;-82
2021/08/15 10:54:06;;;;;;;14.65;7.50;;;;;;;31.72;42.06;99900.72;4957488;28;20118;-84
2021/08/15 10:56:53;;;;;;;15.15;8.00;;;;;;;31.69;42.04;99900.34;4961709;28;20106;-84
2021/08/15 10:59:30;;;;;;;13.48;7.95;;;;;;;31.83;41.04;99888.41;4967790;28;20043;-83
2021/08/15 11:02:08;;;;;;;10.90;7.63;;;;;;;31.81;40.56;99894.03;4969021;28;20089;-87
2021/08/15 11:04:36;;;;;;;13.98;6.90;;;;;;;32.11;40.04;99889.75;4963040;28;20109;-83
2021/08/15 11:07:03;;;;;;;11.70;8.20;;;;;;;32.10;40.86;99888.09;4965134;28;20042;-86
2021/08/15 11:09:57;;;;;;;9.38;7.95;;;;;;;31.88;41.27;99885.06;4968655;28;20065;-89
2021/08/15 11:12:24;;;;;;;9.93;8.68;;;;;;;32.11;41.12;99881.66;4961680;28;20062;-88
2021/08/15 11:14:54;;;;;;;12.00;8.18;;;;;;;31.93;41.63;99882.50;4968644;28;20441;-86
2021/08/15 11:17:21;;;;;;;8.13;7.22;;;;;;;31.91;40.84;99868.44;4968115;28;20074;-88
2021/08/15 11:19:48;;;;;;;12.25;7.70;;;;;;;32.15;41.25;99870.19;4963692;28;20126;-88
2021/08/15 11:22:20;;;;;;;23.95;8.18;;;;;;;32.20;41.01;99873.03;4972884;28;20043;-84
2021/08/15 11:24:54;;;;;;;11.93;8.07;;;;;;;32.32;40.23;99860.44;4972983;28;20070;-91
2021/08/15 11:27:30;;;;;;;8.77;7.93;;;;;;;32.29;39.75;99866.28;4981854;28;20039;-91
2021/08/15 11:30:00;;;;;;;9.80;7.53;;;;;;;32.30;39.18;99859.84;4983403;28;20051;-90